Time;durP1;ratioP1;P1;durP2;ratioP2;P2;SDS_P1;SDS_P2;PMS_P1;PMS_P2;Temp;Humidity;BMP_temperature;BMP_pressure;BME280_temperature;BME280_humidity;BME280_pressure;Samples;Min_cycle;Max_cycle;Signal;HPM_P1;HPM_P2
2022/07/08 00:01:33;;;;;;;9.88;1.80;;;14.50;99.90;;;;;;5021123;28;20417;-85
2022/07/08 00:03:59;;;;;;;7.22;2.20;;;14.50;99.90;;;;;;5012926;28;20537;-85
2022/07/08 00:06:25;;;;;;;9.98;2.17;;;14.50;99.90;;;;;;4995388;28;20080;-85
2022/07/08 00:08:51;;;;;;;10.02;2.58;;;14.50;99.90;;;;;;5009647;28;20041;-86
2022/07/08 00:11:16;;;;;;;11.75;2.00;;;14.50;99.90;;;;;;5011011;28;20433;-85
2022/07/08 00:13:42;;;;;;;12.45;2.22;;;14.50;99.90;;;;;;5009437;28;20096;-85
2022/07/08 00:16:07;;;;;;;10.55;2.70;;;14.50;99.90;;;;;;4994693;28;20055;-85
2022/07/08 00:18:33;;;;;;;7.25;1.92;;;14.50;99.90;;;;;;4993776;28;20064;-85
2022/07/08 00:20:59;;;;;;;8.30;1.98;;;14.50;99.90;;;;;;5010652;28;20046;-85
2022/07/08 00:23:24;;;;;;;6.15;1.73;;;14.50;99.90;;;;;;4994381;28;20081;-85
2022/07/08 00:25:50;;;;;;;9.30;1.92;;;14.50;99.90;;;;;;5009894;28;20137;-86
2022/07/08 00:28:16;;;;;;;10.13;2.22;;;14.50;99.90;;;;;;4992922;28;20147;-85
2022/07/08 00:30:41;;;;;;;9.85;2.00;;;14.50;99.90;;;;;;4975414;28;20053;-84
2022/07/08 00:33:07;;;;;;;11.43;2.05;;;14.50;99.90;;;;;;4992148;28;20075;-85
2022/07/08 00:35:32;;;;;;;8.65;2.13;;;14.40;99.90;;;;;;4992258;28;20062;-85
2022/07/08 00:37:58;;;;;;;12.00;2.92;;;14.40;99.90;;;;;;4958840;28;20054;-85
2022/07/08 00:40:24;;;;;;;9.90;2.40;;;14.40;99.90;;;;;;4971842;28;20053;-85
2022/07/08 00:42:49;;;;;;;9.85;2.05;;;14.40;99.90;;;;;;4969593;28;20394;-85
2022/07/08 00:45:16;;;;;;;9.10;2.00;;;14.30;99.90;;;;;;4992490;28;20054;-84
2022/07/08 00:47:41;;;;;;;9.80;2.58;;;14.30;99.90;;;;;;4992212;28;20406;-84
2022/07/08 00:50:09;;;;;;;11.20;2.10;;;14.30;99.90;;;;;;4971733;28;20109;-84
2022/07/08 00:52:35;;;;;;;10.68;2.80;;;14.30;99.90;;;;;;4966334;28;20057;-85
2022/07/08 00:55:01;;;;;;;9.20;2.00;;;14.30;99.90;;;;;;4958275;28;20096;-85
2022/07/08 00:57:27;;;;;;;12.98;3.08;;;14.20;99.90;;;;;;4992024;28;20074;-85
2022/07/08 00:59:54;;;;;;;6.40;2.42;;;14.30;99.90;;;;;;4974590;28;20054;-83
2022/07/08 01:02:19;;;;;;;8.80;1.88;;;14.20;99.90;;;;;;4974820;28;20053;-83
2022/07/08 01:04:45;;;;;;;7.60;2.22;;;14.20;99.90;;;;;;4959042;28;20046;-84
2022/07/08 01:07:10;;;;;;;10.30;1.85;;;14.20;99.90;;;;;;4973624;28;20137;-84
2022/07/08 01:09:36;;;;;;;11.10;2.00;;;14.10;99.90;;;;;;4955379;28;20062;-83
2022/07/08 01:12:03;;;;;;;9.70;2.50;;;14.10;99.90;;;;;;4955451;28;20128;-85
2022/07/08 01:14:28;;;;;;;7.90;2.30;;;14.00;99.90;;;;;;4989720;28;20062;-84
2022/07/08 01:16:54;;;;;;;12.30;2.10;;;14.00;99.90;;;;;;4971593;28;20093;-85
2022/07/08 01:19:19;;;;;;;9.52;2.25;;;13.90;99.90;;;;;;4991817;28;20042;-83
2022/07/08 01:21:45;;;;;;;11.18;2.95;;;13.80;99.90;;;;;;5004668;28;20552;-84
2022/07/08 01:24:11;;;;;;;11.18;2.20;;;13.80;99.90;;;;;;4991977;28;20092;-84
2022/07/08 01:26:36;;;;;;;9.82;2.53;;;13.70;99.90;;;;;;4991617;28;20395;-84
2022/07/08 01:29:02;;;;;;;10.52;2.42;;;13.60;99.90;;;;;;4954519;28;20050;-83
2022/07/08 01:31:28;;;;;;;13.63;2.40;;;13.60;99.90;;;;;;4957705;28;20058;-86
2022/07/08 01:33:53;;;;;;;10.68;2.08;;;13.60;99.90;;;;;;4974056;28;20466;-83
2022/07/08 01:36:19;;;;;;;9.85;2.00;;;13.60;99.90;;;;;;4971248;28;20121;-83
2022/07/08 01:38:45;;;;;;;9.38;1.95;;;13.50;99.90;;;;;;4990668;28;20058;-83
2022/07/08 01:41:10;;;;;;;9.18;2.08;;;13.50;99.90;;;;;;4989733;28;20409;-84
2022/07/08 01:43:36;;;;;;;12.45;2.00;;;13.50;99.90;;;;;;4987655;28;20527;-83
2022/07/08 01:46:01;;;;;;;11.52;2.78;;;13.50;99.90;;;;;;4983155;28;20133;-84
2022/07/08 01:48:27;;;;;;;8.48;2.10;;;13.50;99.90;;;;;;4990064;28;20080;-84
2022/07/08 01:50:53;;;;;;;9.32;2.67;;;13.40;99.90;;;;;;4988223;28;20089;-86
2022/07/08 01:53:19;;;;;;;10.20;2.03;;;13.40;99.90;;;;;;4989787;28;20397;-84
2022/07/08 01:55:45;;;;;;;13.90;2.75;;;13.30;99.90;;;;;;4990300;28;20093;-84
2022/07/08 01:58:11;;;;;;;15.85;2.78;;;13.30;99.90;;;;;;4990914;28;20054;-86
2022/07/08 02:00:37;;;;;;;10.50;2.25;;;13.20;99.90;;;;;;5002878;28;20049;-84
2022/07/08 02:03:03;;;;;;;13.82;2.50;;;13.30;99.90;;;;;;4989385;28;20090;-83
2022/07/08 02:05:33;;;;;;;10.48;2.20;;;13.20;99.90;;;;;;5004076;28;20046;-83
2022/07/08 02:07:59;;;;;;;8.80;2.60;;;13.20;99.90;;;;;;4986810;28;20491;-85
2022/07/08 02:10:25;;;;;;;10.40;2.75;;;13.30;99.90;;;;;;4984965;28;20074;-84
2022/07/08 02:12:51;;;;;;;12.63;2.35;;;13.20;99.90;;;;;;4974374;28;20108;-84
2022/07/08 02:15:16;;;;;;;11.38;2.28;;;13.20;99.90;;;;;;4988831;28;20471;-84
2022/07/08 02:17:42;;;;;;;16.55;2.53;;;13.20;99.90;;;;;;4990124;28;20053;-83
2022/07/08 02:20:10;;;;;;;11.15;2.17;;;13.20;99.90;;;;;;4985467;28;20049;-83
2022/07/08 02:22:36;;;;;;;8.93;2.00;;;13.20;99.90;;;;;;4996264;28;20081;-83
2022/07/08 02:25:02;;;;;;;9.73;2.28;;;13.20;99.90;;;;;;4995217;28;20078;-85
2022/07/08 02:27:27;;;;;;;8.40;1.92;;;13.10;99.90;;;;;;4978136;28;20427;-84
2022/07/08 02:29:53;;;;;;;14.43;3.33;;;13.00;99.90;;;;;;4991244;28;20133;-83
2022/07/08 02:32:19;;;;;;;8.00;2.00;;;13.00;99.90;;;;;;4993346;28;20055;-84
2022/07/08 02:34:44;;;;;;;10.68;3.08;;;12.90;99.90;;;;;;4993623;28;20062;-84
2022/07/08 02:37:10;;;;;;;11.90;2.40;;;12.90;99.90;;;;;;4993669;28;20390;-83
2022/07/08 02:39:36;;;;;;;9.27;2.10;;;12.80;99.90;;;;;;4993621;28;20046;-83
2022/07/08 02:42:01;;;;;;;16.08;2.35;;;12.70;99.90;;;;;;4994099;28;20058;-84
2022/07/08 02:44:27;;;;;;;13.85;2.55;;;12.70;99.90;;;;;;4990670;28;20046;-83
2022/07/08 02:46:53;;;;;;;9.43;2.58;;;12.60;99.90;;;;;;4989104;28;20111;-84
2022/07/08 02:49:18;;;;;;;12.25;2.53;;;12.60;99.90;;;;;;4992922;28;20513;-83
2022/07/08 02:51:44;;;;;;;12.10;2.75;;;12.60;99.90;;;;;;4994529;28;20062;-83
2022/07/08 02:54:09;;;;;;;12.45;3.13;;;12.60;99.90;;;;;;4992698;28;20058;-85
2022/07/08 02:56:35;;;;;;;6.70;2.10;;;12.50;99.90;;;;;;4993315;28;20042;-84
2022/07/08 02:59:01;;;;;;;10.55;2.75;;;12.50;99.90;;;;;;4993446;28;20502;-84
2022/07/08 03:01:27;;;;;;;16.35;2.88;;;12.50;99.90;;;;;;4992803;28;20085;-84
2022/07/08 03:03:52;;;;;;;10.43;2.45;;;12.50;99.90;;;;;;4993257;28;20058;-83
2022/07/08 03:06:18;;;;;;;29.85;3.92;;;12.50;99.90;;;;;;4993687;28;20410;-82
2022/07/08 03:08:44;;;;;;;14.93;3.28;;;12.50;99.90;;;;;;4993001;28;20034;-83
2022/07/08 03:11:10;;;;;;;11.57;2.70;;;12.50;99.90;;;;;;4973307;28;20057;-85
2022/07/08 03:13:36;;;;;;;6.63;2.28;;;12.40;99.90;;;;;;4983178;28;20053;-84
2022/07/08 03:16:03;;;;;;;13.13;2.63;;;12.40;99.90;;;;;;4976956;28;20046;-84
2022/07/08 03:18:34;;;;;;;13.10;2.50;;;12.40;99.90;;;;;;4973961;28;20121;-84
2022/07/08 03:21:00;;;;;;;9.07;2.70;;;12.40;99.90;;;;;;4987081;28;20133;-85
2022/07/08 03:23:26;;;;;;;10.82;2.60;;;12.50;99.90;;;;;;4992661;28;20092;-84
2022/07/08 03:25:52;;;;;;;11.23;2.85;;;12.40;99.90;;;;;;5009123;28;20617;-82
2022/07/08 03:28:17;;;;;;;12.65;2.83;;;12.50;99.90;;;;;;4992186;28;20124;-83
2022/07/08 03:30:43;;;;;;;15.05;2.78;;;12.40;99.90;;;;;;4975700;28;20095;-82
2022/07/08 03:33:08;;;;;;;14.38;3.35;;;12.40;99.90;;;;;;4992151;28;20121;-83
2022/07/08 03:35:34;;;;;;;12.13;2.40;;;12.40;99.90;;;;;;4993384;28;20093;-83
2022/07/08 03:38:00;;;;;;;6.88;2.60;;;12.40;99.90;;;;;;4960262;28;20451;-83
2022/07/08 03:43:10;;;;;;;10.52;2.83;;;12.50;99.90;;;;;;4975662;28;20056;-83
2022/07/08 03:45:36;;;;;;;11.25;2.67;;;12.50;99.90;;;;;;4962992;28;20054;-84
2022/07/08 03:48:03;;;;;;;12.52;2.50;;;12.50;99.90;;;;;;4972908;28;20093;-84
2022/07/08 03:50:31;;;;;;;13.35;2.97;;;12.60;99.90;;;;;;4970761;28;20090;-83
2022/07/08 03:52:57;;;;;;;13.48;2.92;;;12.60;99.90;;;;;;4967072;28;20086;-84
2022/07/08 03:55:24;;;;;;;11.93;2.67;;;12.70;99.90;;;;;;4958253;28;20047;-84
2022/07/08 03:57:50;;;;;;;8.65;2.83;;;12.80;99.90;;;;;;4959871;28;20100;-83
2022/07/08 04:00:16;;;;;;;15.38;3.35;;;12.80;99.90;;;;;;4959203;28;20454;-84
2022/07/08 04:02:42;;;;;;;12.52;2.40;;;12.90;99.90;;;;;;4991854;28;20046;-83
2022/07/08 04:05:07;;;;;;;7.15;2.30;;;12.90;99.90;;;;;;4992882;28;20053;-83
2022/07/08 04:07:33;;;;;;;11.48;2.42;;;12.90;99.90;;;;;;4955403;28;20078;-84
2022/07/08 04:09:59;;;;;;;11.50;2.42;;;12.90;99.90;;;;;;4983848;28;20046;-84
2022/07/08 04:12:24;;;;;;;13.57;2.67;;;12.90;99.90;;;;;;4975045;28;20049;-82
2022/07/08 04:14:50;;;;;;;11.10;2.83;;;12.90;99.90;;;;;;4959672;28;20054;-83
2022/07/08 04:17:17;;;;;;;11.45;2.75;;;12.90;99.90;;;;;;4974636;28;20490;-83
2022/07/08 04:19:42;;;;;;;11.00;2.67;;;12.90;99.90;;;;;;4956436;28;20090;-83
2022/07/08 04:22:08;;;;;;;8.75;2.80;;;13.00;99.90;;;;;;4968769;28;20389;-82
2022/07/08 04:24:34;;;;;;;10.80;3.70;;;13.00;99.90;;;;;;4992237;28;20053;-83
2022/07/08 04:26:59;;;;;;;13.05;3.42;;;13.20;99.90;;;;;;4992577;28;20113;-83
2022/07/08 04:29:25;;;;;;;11.15;2.88;;;13.20;99.90;;;;;;4973940;28;20049;-83
2022/07/08 04:31:51;;;;;;;13.05;3.35;;;13.20;99.90;;;;;;4995219;28;20053;-83
2022/07/08 04:34:16;;;;;;;11.02;2.90;;;13.20;99.90;;;;;;4974588;28;20050;-82
2022/07/08 04:36:42;;;;;;;9.43;3.05;;;13.20;99.90;;;;;;4975024;28;20058;-83
2022/07/08 04:39:08;;;;;;;12.73;3.67;;;13.30;99.90;;;;;;5001304;28;20046;-84
2022/07/08 04:41:33;;;;;;;11.93;3.00;;;13.40;99.90;;;;;;4976131;28;20373;-83
2022/07/08 04:43:59;;;;;;;15.75;3.65;;;13.50;99.90;;;;;;4956646;28;20122;-83
2022/07/08 04:46:24;;;;;;;15.07;4.13;;;13.70;99.90;;;;;;4967942;28;20063;-83
2022/07/08 04:48:51;;;;;;;13.40;3.05;;;14.40;99.90;;;;;;4974613;28;20055;-82
2022/07/08 04:51:17;;;;;;;11.75;3.28;;;15.00;99.90;;;;;;4958630;28;20065;-83
2022/07/08 04:53:42;;;;;;;12.90;3.35;;;15.80;99.90;;;;;;4974639;28;20301;-84
2022/07/08 04:56:08;;;;;;;10.23;2.80;;;16.40;99.90;;;;;;4971471;28;20408;-83
2022/07/08 04:58:34;;;;;;;10.23;2.60;;;16.90;99.90;;;;;;4986384;28;20114;-83
2022/07/08 05:00:59;;;;;;;9.55;2.53;;;17.20;99.90;;;;;;4974998;28;20058;-82
2022/07/08 05:03:25;;;;;;;12.45;3.00;;;17.50;99.90;;;;;;4974659;28;20054;-83
2022/07/08 05:05:51;;;;;;;10.27;2.90;;;18.00;99.90;;;;;;4974349;28;20053;-83
2022/07/08 05:08:17;;;;;;;10.23;2.58;;;18.10;99.90;;;;;;4991797;28;20042;-84
2022/07/08 05:10:42;;;;;;;8.70;2.40;;;18.30;99.90;;;;;;4958407;28;20498;-83
2022/07/08 05:13:08;;;;;;;14.57;3.03;;;18.70;99.90;;;;;;4974498;28;20046;-84
2022/07/08 05:15:34;;;;;;;10.70;2.50;;;18.90;99.90;;;;;;4973864;28;20047;-83
2022/07/08 05:17:59;;;;;;;9.77;3.30;;;18.20;99.90;;;;;;4958635;28;20038;-82
2022/07/08 05:20:25;;;;;;;11.63;2.97;;;18.00;99.90;;;;;;4973954;28;20054;-82
2022/07/08 05:22:51;;;;;;;9.13;3.13;;;17.30;99.90;;;;;;4973765;28;20498;-81
2022/07/08 05:25:16;;;;;;;8.70;2.58;;;17.40;99.90;;;;;;4974575;28;20152;-83
2022/07/08 05:27:42;;;;;;;9.95;2.83;;;17.00;99.90;;;;;;4956919;28;20470;-83
2022/07/08 05:30:09;;;;;;;11.35;2.83;;;17.50;99.90;;;;;;4974371;28;20490;-81
2022/07/08 05:32:35;;;;;;;9.50;2.58;;;17.70;99.90;;;;;;4973758;28;20097;-82
2022/07/08 05:35:01;;;;;;;13.38;3.20;;;17.50;99.90;;;;;;4973413;28;20054;-84
2022/07/08 05:37:27;;;;;;;8.23;2.33;;;17.50;99.90;;;;;;4954428;28;20050;-83
2022/07/08 05:39:52;;;;;;;10.77;2.90;;;17.30;99.90;;;;;;4986226;28;20130;-83
2022/07/08 05:42:18;;;;;;;11.23;2.72;;;17.20;99.90;;;;;;4958205;28;20066;-82
2022/07/08 05:44:43;;;;;;;11.75;2.95;;;17.40;99.90;;;;;;4954254;28;20105;-83
2022/07/08 05:47:09;;;;;;;12.80;2.30;;;17.10;99.90;;;;;;4969442;28;20054;-84
2022/07/08 05:49:36;;;;;;;9.35;2.90;;;17.30;99.90;;;;;;4964589;28;20050;-82
2022/07/08 05:52:02;;;;;;;11.73;2.60;;;18.20;99.90;;;;;;4973514;28;20482;-83
2022/07/08 05:54:28;;;;;;;11.15;2.45;;;18.30;99.90;;;;;;4977035;28;20508;-82
2022/07/08 05:56:54;;;;;;;12.75;2.63;;;18.50;99.90;;;;;;4980327;28;20078;-82
2022/07/08 05:59:19;;;;;;;7.85;2.70;;;18.70;99.90;;;;;;4980456;28;20118;-83
2022/07/08 06:01:45;;;;;;;9.35;2.50;;;19.40;99.90;;;;;;4997436;28;20121;-84
2022/07/08 06:04:11;;;;;;;9.48;2.20;;;19.60;99.90;;;;;;4964045;28;20108;-84
2022/07/08 06:06:37;;;;;;;8.07;2.63;;;19.60;99.90;;;;;;4997101;28;20046;-82
2022/07/08 06:09:03;;;;;;;10.07;2.38;;;19.60;99.90;;;;;;4996876;28;20437;-82
2022/07/08 06:11:31;;;;;;;8.35;2.10;;;19.80;99.90;;;;;;4995980;28;20113;-82
2022/07/08 06:13:57;;;;;;;9.85;2.58;;;20.60;99.90;;;;;;4997197;28;20133;-82
2022/07/08 06:16:22;;;;;;;9.45;2.42;;;20.20;99.90;;;;;;4976723;28;20057;-82
2022/07/08 06:18:48;;;;;;;6.53;2.33;;;19.80;99.90;;;;;;4969791;28;20126;-82
2022/07/08 06:21:14;;;;;;;11.23;2.42;;;19.50;99.90;;;;;;4996480;28;20034;-84
2022/07/08 06:23:40;;;;;;;8.75;1.98;;;19.10;99.90;;;;;;4976648;28;20514;-84
2022/07/08 06:26:05;;;;;;;14.95;2.40;;;18.40;99.90;;;;;;4977109;28;20508;-84
2022/07/08 06:28:31;;;;;;;9.68;2.05;;;18.20;99.90;;;;;;4997083;28;20125;-83
2022/07/08 06:30:57;;;;;;;12.63;2.33;;;18.00;99.90;;;;;;4979609;28;20177;-83
2022/07/08 06:33:22;;;;;;;6.90;2.20;;;17.70;99.90;;;;;;4963893;28;20061;-85
2022/07/08 06:35:48;;;;;;;9.40;2.50;;;17.80;99.90;;;;;;4988348;28;20253;-82
2022/07/08 06:38:13;;;;;;;14.35;3.22;;;17.60;99.90;;;;;;4996822;28;20050;-83
2022/07/08 06:40:39;;;;;;;10.80;2.42;;;17.60;99.90;;;;;;4995842;28;20442;-84
2022/07/08 06:43:05;;;;;;;9.05;2.40;;;17.70;99.90;;;;;;4980081;28;20470;-83
2022/07/08 06:45:32;;;;;;;10.18;2.30;;;17.70;99.90;;;;;;5011867;28;20042;-87
2022/07/08 06:47:58;;;;;;;12.88;2.17;;;17.90;99.90;;;;;;4995978;28;20478;-83
2022/07/08 06:50:24;;;;;;;7.63;2.42;;;18.00;99.90;;;;;;4976375;28;20479;-85
2022/07/08 06:52:50;;;;;;;14.93;2.67;;;18.00;99.90;;;;;;4966141;28;20054;-83
2022/07/08 06:55:15;;;;;;;8.68;2.40;;;18.10;99.90;;;;;;4992992;28;20053;-84
2022/07/08 06:57:41;;;;;;;7.03;2.00;;;18.00;99.90;;;;;;4998253;28;20065;-84
2022/07/08 07:00:09;;;;;;;13.50;2.53;;;18.10;99.90;;;;;;4996505;28;20097;-82
2022/07/08 07:02:34;;;;;;;9.75;2.53;;;18.20;99.90;;;;;;4996909;28;20042;-83
2022/07/08 07:05:00;;;;;;;12.55;2.80;;;18.30;99.90;;;;;;4994666;28;20368;-83
2022/07/08 07:07:27;;;;;;;10.20;2.50;;;18.40;99.90;;;;;;4976366;28;20149;-83
2022/07/08 07:09:53;;;;;;;10.52;2.58;;;18.60;99.90;;;;;;4993706;28;20105;-82
2022/07/08 07:12:19;;;;;;;12.07;2.45;;;18.30;99.90;;;;;;4992501;28;20093;-82
2022/07/08 07:14:44;;;;;;;9.57;2.30;;;18.40;99.90;;;;;;4993031;28;20073;-83
2022/07/08 07:17:10;;;;;;;12.35;2.63;;;18.50;99.90;;;;;;4994094;28;20042;-84
2022/07/08 07:19:36;;;;;;;11.35;2.20;;;18.70;99.90;;;;;;4991548;28;20053;-82
2022/07/08 07:22:01;;;;;;;9.48;2.15;;;18.60;99.90;;;;;;4993540;28;20050;-85
2022/07/08 07:24:28;;;;;;;5.97;1.80;;;18.80;99.90;;;;;;4993857;28;20046;-84
2022/07/08 07:26:53;;;;;;;11.02;2.47;;;18.90;99.90;;;;;;4993628;28;20061;-82
2022/07/08 07:29:19;;;;;;;10.48;2.15;;;18.80;99.90;;;;;;4991660;28;20047;-86
2022/07/08 07:31:45;;;;;;;13.32;2.50;;;18.60;99.90;;;;;;4995317;28;20085;-86
2022/07/08 07:34:10;;;;;;;7.00;1.88;;;18.50;99.90;;;;;;4995119;28;20050;-87
2022/07/08 07:36:36;;;;;;;10.30;2.40;;;18.60;99.90;;;;;;5003266;28;20536;-86
2022/07/08 07:39:02;;;;;;;6.13;1.80;;;18.80;99.90;;;;;;4982422;28;20073;-89
2022/07/08 07:41:27;;;;;;;9.52;2.72;;;19.00;99.90;;;;;;4977777;28;20446;-88
2022/07/08 07:43:53;;;;;;;10.40;2.30;;;19.10;99.90;;;;;;4990754;28;20054;-87
2022/07/08 07:46:19;;;;;;;9.40;1.98;;;19.10;99.90;;;;;;4991325;28;20042;-89
2022/07/08 07:48:45;;;;;;;11.13;2.55;;;19.30;99.90;;;;;;4993357;28;20508;-87
2022/07/08 07:51:11;;;;;;;10.73;2.42;;;19.20;99.90;;;;;;4992078;28;20046;-87
2022/07/08 07:53:36;;;;;;;11.63;2.33;;;19.20;99.90;;;;;;4990643;28;20050;-89
2022/07/08 07:56:02;;;;;;;9.65;2.28;;;19.10;99.90;;;;;;4974148;28;20085;-87
2022/07/08 07:58:28;;;;;;;8.25;2.10;;;19.00;99.90;;;;;;4976529;28;20405;-89
2022/07/08 08:00:53;;;;;;;11.35;2.83;;;18.90;99.90;;;;;;4989726;28;20061;-88
2022/07/08 08:03:19;;;;;;;9.52;2.22;;;19.00;99.90;;;;;;4997035;28;20390;-86
2022/07/08 08:05:45;;;;;;;11.40;2.55;;;18.90;99.90;;;;;;4997912;28;20129;-89
2022/07/08 08:08:11;;;;;;;9.80;2.00;;;18.80;99.90;;;;;;4982585;28;20034;-87
2022/07/08 08:10:36;;;;;;;8.23;2.05;;;18.70;99.90;;;;;;4994091;28;20043;-88
2022/07/08 08:13:02;;;;;;;8.70;1.85;;;18.80;99.90;;;;;;4998132;28;20116;-88
2022/07/08 08:15:29;;;;;;;12.07;2.72;;;19.00;99.90;;;;;;4978738;28;20047;-86
2022/07/08 08:17:56;;;;;;;12.32;2.63;;;18.90;99.90;;;;;;5088077;23;20092;-87
2022/07/08 08:20:26;;;;;;;6.35;1.83;;;18.80;99.90;;;;;;5010343;28;20041;-87
2022/07/08 08:22:52;;;;;;;7.88;2.35;;;18.90;99.90;;;;;;5031120;28;20098;-87
2022/07/08 08:25:19;;;;;;;12.18;2.58;;;19.00;99.90;;;;;;4996518;28;20057;-88
2022/07/08 08:27:44;;;;;;;6.97;2.13;;;19.00;99.90;;;;;;4997376;28;20061;-87
2022/07/08 08:30:11;;;;;;;9.52;2.30;;;19.10;99.90;;;;;;4992489;28;20226;-88
2022/07/08 08:32:36;;;;;;;8.23;2.92;;;19.00;99.90;;;;;;5016060;28;20206;-87
2022/07/08 08:35:02;;;;;;;7.35;2.25;;;19.00;99.90;;;;;;5016622;28;20120;-87
2022/07/08 08:37:28;;;;;;;9.43;2.60;;;19.00;99.90;;;;;;4982759;28;20790;-85
2022/07/08 08:39:53;;;;;;;10.07;2.47;;;19.30;99.90;;;;;;4995070;28;20094;-87
2022/07/08 08:42:19;;;;;;;8.70;2.33;;;19.10;99.90;;;;;;5012818;28;20107;-87
2022/07/08 08:44:49;;;;;;;11.15;2.35;;;19.30;99.90;;;;;;4996798;28;20053;-89
2022/07/08 08:47:15;;;;;;;8.38;2.13;;;19.40;99.90;;;;;;4996542;28;20053;-87
2022/07/08 08:49:41;;;;;;;8.70;2.17;;;19.60;99.90;;;;;;4962885;28;20049;-88
2022/07/08 08:52:06;;;;;;;10.32;2.38;;;19.70;99.90;;;;;;4958409;28;20060;-89
2022/07/08 08:54:33;;;;;;;9.40;2.20;;;19.80;99.90;;;;;;4992704;28;20085;-88
2022/07/08 08:57:04;;;;;;;7.50;2.13;;;19.90;99.90;;;;;;4978616;28;20093;-86
2022/07/08 08:59:30;;;;;;;8.57;2.50;;;20.00;99.90;;;;;;4975717;28;20056;-88
2022/07/08 09:01:55;;;;;;;7.25;2.25;;;20.00;99.90;;;;;;4992520;28;20045;-88
2022/07/08 09:04:21;;;;;;;8.07;2.42;;;19.70;99.90;;;;;;4997878;28;20045;-88
2022/07/08 09:06:47;;;;;;;7.05;2.30;;;19.50;99.90;;;;;;4965153;28;20050;-87
2022/07/08 09:09:12;;;;;;;13.75;2.83;;;19.60;99.90;;;;;;5008430;28;20040;-88
2022/07/08 09:11:39;;;;;;;8.88;2.28;;;19.70;99.90;;;;;;5011410;28;20045;-86
2022/07/08 09:14:21;;;;;;;8.85;3.15;;;19.60;99.90;;;;;;5010330;28;20050;-87
2022/07/08 09:17:09;;;;;;;6.80;2.33;;;19.80;99.90;;;;;;4997972;28;20053;-87
2022/07/08 09:19:36;;;;;;;10.20;2.78;;;19.90;99.90;;;;;;4999693;28;20109;-87
2022/07/08 09:22:02;;;;;;;7.05;2.30;;;20.00;99.90;;;;;;5011201;28;20389;-84
2022/07/08 09:24:28;;;;;;;8.30;2.50;;;19.90;99.90;;;;;;4966288;28;20046;-87
2022/07/08 09:26:55;;;;;;;10.75;2.30;;;20.00;99.90;;;;;;4975013;28;20069;-87
2022/07/08 09:29:21;;;;;;;8.60;2.33;;;19.90;99.90;;;;;;4974219;28;20064;-86
2022/07/08 09:31:47;;;;;;;8.02;2.20;;;19.90;99.90;;;;;;4991549;28;20128;-86
2022/07/08 09:34:16;;;;;;;6.40;2.00;;;20.00;99.90;;;;;;5012906;28;20416;-86
2022/07/08 09:36:49;;;;;;;8.07;2.47;;;19.90;99.90;;;;;;4980017;28;20050;-87
2022/07/08 09:39:27;;;;;;;8.77;3.22;;;20.00;99.90;;;;;;4995465;28;20127;-89
2022/07/08 09:41:53;;;;;;;8.60;3.03;;;20.30;99.90;;;;;;4988992;28;20577;-89
2022/07/08 09:44:22;;;;;;;9.73;2.63;;;20.40;99.90;;;;;;4976827;28;20121;-87
2022/07/08 09:46:48;;;;;;;8.43;2.22;;;20.60;99.90;;;;;;4993611;28;20150;-88
2022/07/08 09:49:28;;;;;;;9.18;2.60;;;20.80;99.90;;;;;;4988396;28;20041;-86
2022/07/08 09:51:55;;;;;;;6.00;2.28;;;20.40;99.90;;;;;;4990811;28;20124;-89
2022/07/08 09:54:21;;;;;;;9.15;2.35;;;20.50;99.90;;;;;;4994990;28;20045;-87
2022/07/08 09:57:07;;;;;;;6.20;2.15;;;20.80;99.90;;;;;;4992039;28;20134;-87
2022/07/08 09:59:36;;;;;;;8.45;2.90;;;21.00;99.90;;;;;;5010003;28;20045;-88
2022/07/08 10:02:02;;;;;;;8.02;2.30;;;20.80;99.90;;;;;;4976251;28;20096;-89
2022/07/08 10:04:28;;;;;;;7.82;2.38;;;20.60;99.90;;;;;;4986366;28;20046;-87
2022/07/08 10:06:54;;;;;;;5.72;2.42;;;20.60;99.90;;;;;;5009246;28;20080;-89
2022/07/08 10:09:22;;;;;;;6.63;2.83;;;20.50;99.90;;;;;;4984089;28;20038;-88
2022/07/08 10:11:48;;;;;;;7.00;2.30;;;20.40;99.90;;;;;;4978390;28;20061;-87
2022/07/08 10:14:14;;;;;;;5.68;2.53;;;20.40;99.90;;;;;;4977882;28;20069;-88
2022/07/08 10:16:40;;;;;;;9.90;2.67;;;20.40;99.90;;;;;;4963508;28;20049;-89
2022/07/08 10:19:17;;;;;;;10.15;2.92;;;20.40;99.90;;;;;;5001074;28;20414;-87
2022/07/08 10:21:45;;;;;;;6.90;2.30;;;20.40;99.90;;;;;;4963756;28;20096;-87
2022/07/08 10:24:12;;;;;;;7.40;2.50;;;20.40;99.90;;;;;;4955872;28;20096;-85
2022/07/08 10:26:40;;;;;;;10.15;2.80;;;20.30;99.90;;;;;;5013249;28;20050;-86
2022/07/08 10:29:07;;;;;;;10.85;2.45;;;20.30;99.90;;;;;;4993406;28;20111;-86
2022/07/08 10:31:51;;;;;;;9.88;2.92;;;20.30;99.90;;;;;;5009652;28;20486;-86
2022/07/08 10:34:34;;;;;;;9.50;2.30;;;20.40;99.90;;;;;;4993330;28;20469;-87
2022/07/08 10:37:01;;;;;;;7.60;2.15;;;20.70;99.90;;;;;;4961415;28;20058;-87
2022/07/08 10:39:27;;;;;;;13.85;2.40;;;20.90;99.90;;;;;;4961497;28;20058;-86
2022/07/08 10:42:01;;;;;;;6.18;2.05;;;21.00;99.90;;;;;;5014110;28;20559;-86
2022/07/08 10:44:50;;;;;;;8.15;2.10;;;21.00;99.90;;;;;;4996804;28;20095;-86
2022/07/08 10:47:17;;;;;;;11.52;2.50;;;21.40;99.90;;;;;;4967506;28;20058;-86
2022/07/08 10:49:47;;;;;;;9.52;2.40;;;21.80;99.90;;;;;;4996675;28;20430;-88
2022/07/08 10:52:16;;;;;;;9.30;2.38;;;22.40;99.90;;;;;;4979919;28;20100;-87
2022/07/08 10:54:42;;;;;;;8.80;2.40;;;22.40;99.90;;;;;;5024998;28;20037;-88
2022/07/08 10:57:09;;;;;;;9.40;2.40;;;22.10;99.90;;;;;;5005450;28;20485;-87
2022/07/08 10:59:36;;;;;;;8.27;2.38;;;22.30;99.90;;;;;;4981280;28;20121;-88
2022/07/08 11:02:15;;;;;;;6.53;2.10;;;22.10;99.90;;;;;;5013993;28;20116;-89
2022/07/08 11:04:42;;;;;;;7.10;2.58;;;22.00;99.90;;;;;;4980808;28;20049;-88
2022/07/08 11:07:17;;;;;;;9.02;2.58;;;22.10;99.90;;;;;;4995217;28;20050;-90
2022/07/08 11:09:45;;;;;;;10.05;2.65;;;22.60;99.90;;;;;;5014949;28;20068;-89
2022/07/08 11:12:15;;;;;;;7.90;2.55;;;22.40;99.90;;;;;;4995357;28;20081;-88
2022/07/08 11:14:42;;;;;;;9.63;2.47;;;22.60;99.90;;;;;;4999395;28;20109;-88
2022/07/08 11:17:16;;;;;;;9.05;2.65;;;22.90;99.90;;;;;;4979605;28;20127;-86
2022/07/08 11:19:42;;;;;;;9.02;2.30;;;23.40;99.90;;;;;;4956375;28;20050;-83
2022/07/08 11:22:09;;;;;;;9.48;2.42;;;23.60;99.90;;;;;;4988390;28;20056;-86
2022/07/08 11:24:36;;;;;;;7.15;2.35;;;23.70;99.90;;;;;;5012146;28;20091;-86
2022/07/08 11:27:02;;;;;;;5.93;2.53;;;23.30;99.90;;;;;;4989583;28;20046;-84
2022/07/08 11:29:28;;;;;;;8.50;2.20;;;23.30;99.90;;;;;;4994822;28;20500;-85
2022/07/08 11:31:57;;;;;;;7.00;2.53;;;23.40;99.90;;;;;;4998791;28;20058;-86
2022/07/08 11:34:24;;;;;;;6.82;2.45;;;23.20;99.90;;;;;;4995252;28;20113;-86
2022/07/08 11:37:00;;;;;;;8.00;2.00;;;23.00;99.90;;;;;;5011795;28;20054;-86
2022/07/08 11:39:26;;;;;;;7.75;2.22;;;23.50;99.90;;;;;;4979638;28;20045;-87
2022/07/08 11:41:52;;;;;;;9.75;2.10;;;24.00;99.90;;;;;;4978733;28;20453;-85
2022/07/08 11:44:20;;;;;;;5.85;2.30;;;23.80;99.90;;;;;;4994781;28;20121;-86
2022/07/08 11:46:46;;;;;;;8.27;2.60;;;23.80;99.90;;;;;;4964114;28;20061;-84
2022/07/08 11:49:15;;;;;;;6.90;2.22;;;24.00;99.90;;;;;;5011038;28;20046;-82
2022/07/08 11:51:48;;;;;;;6.75;2.40;;;23.90;99.90;;;;;;5012225;28;20046;-84
2022/07/08 11:54:19;;;;;;;7.55;2.28;;;24.00;99.90;;;;;;5012401;28;20058;-86
2022/07/08 11:56:45;;;;;;;6.72;2.00;;;24.10;99.90;;;;;;5012858;28;20153;-84
2022/07/08 11:59:10;;;;;;;5.78;2.03;;;23.90;99.90;;;;;;4994506;28;20125;-89
2022/07/08 12:01:36;;;;;;;5.65;2.13;;;23.90;99.90;;;;;;5012322;28;20125;-84
2022/07/08 12:04:08;;;;;;;7.72;2.80;;;24.40;99.90;;;;;;4982321;28;20049;-87
2022/07/08 12:06:34;;;;;;;5.65;2.20;;;24.20;99.90;;;;;;4981149;28;20045;-88
2022/07/08 12:09:09;;;;;;;4.82;2.00;;;24.30;99.90;;;;;;4961284;28;20089;-89
2022/07/08 12:11:43;;;;;;;5.75;2.15;;;24.40;99.90;;;;;;4994709;28;20050;-89
2022/07/08 12:14:08;;;;;;;9.02;2.53;;;24.40;99.90;;;;;;4999832;28;20513;-88
2022/07/08 12:16:39;;;;;;;5.38;2.55;;;24.00;99.90;;;;;;4999685;28;20093;-91
2022/07/08 12:19:05;;;;;;;5.32;1.88;;;24.00;99.90;;;;;;4978844;28;20398;-91
2022/07/08 12:21:31;;;;;;;3.78;1.85;;;23.40;99.90;;;;;;4978095;28;20042;-86
2022/07/08 12:24:04;;;;;;;9.45;2.28;;;23.70;99.90;;;;;;4984711;28;20051;-84
2022/07/08 12:26:29;;;;;;;7.07;2.65;;;23.80;99.90;;;;;;4990915;28;20469;-84
2022/07/08 12:28:55;;;;;;;5.05;1.80;;;23.90;99.90;;;;;;5003024;28;20104;-86
2022/07/08 12:31:37;;;;;;;6.32;2.10;;;23.70;99.90;;;;;;4992714;28;20054;-85
2022/07/08 12:34:03;;;;;;;5.72;2.08;;;23.70;99.90;;;;;;5010768;28;20054;-85
2022/07/08 12:36:29;;;;;;;5.53;2.25;;;23.90;99.90;;;;;;4994413;28;20065;-84
2022/07/08 12:38:55;;;;;;;7.57;2.45;;;24.20;99.90;;;;;;4994207;28;20061;-84
2022/07/08 12:41:21;;;;;;;7.07;2.13;;;23.90;99.90;;;;;;4978004;28;20049;-86
2022/07/08 12:43:47;;;;;;;6.85;2.67;;;23.80;99.90;;;;;;5001759;28;20076;-86